Time;durP1;ratioP1;P1;durP2;ratioP2;P2;SDS_P1;SDS_P2;PMS_P1;PMS_P2;Temp;Humidity;BMP_temperature;BMP_pressure;BME280_temperature;BME280_humidity;BME280_pressure;Samples;Min_cycle;Max_cycle;Signal;HPM_P1;HPM_P2
2024/04/08 00:00:37;;;;;;;;;;;;;;;9.83;100.00;100722.88;5070952;28;20018;-66
2024/04/08 00:03:02;;;;;;;;;;;;;;;9.86;100.00;100733.22;5063554;28;19930;-65
2024/04/08 00:05:28;;;;;;;;;;;;;;;9.86;100.00;100720.75;5064020;28;19925;-66
2024/04/08 00:07:53;;;;;;;;;;;;;;;9.89;100.00;100719.59;5060978;28;20034;-65
2024/04/08 00:10:19;;;;;;;;;;;;;;;9.88;100.00;100723.25;5062799;28;19924;-66
2024/04/08 00:12:44;;;;;;;;;;;;;;;9.86;100.00;100728.75;5063140;28;19927;-67
2024/04/08 00:15:10;;;;;;;;;;;;;;;9.84;100.00;100720.09;5059924;28;20000;-67
2024/04/08 00:17:36;;;;;;;;;;;;;;;9.83;100.00;100723.75;5067892;28;19928;-67
2024/04/08 00:20:05;;;;;;;;;;;;;;;9.80;100.00;100728.50;5064695;28;19952;-66
2024/04/08 00:22:30;;;;;;;;;;;;;;;9.77;100.00;100718.19;5058909;28;19971;-67
2024/04/08 00:24:55;;;;;;;;;;;;;;;9.75;100.00;100720.19;5058649;28;20370;-67
2024/04/08 00:27:21;;;;;;;;;;;;;;;9.73;100.00;100716.84;5057678;28;20283;-66
2024/04/08 00:29:46;;;;;;;;;;;;;;;9.73;100.00;100716.84;5060337;28;19924;-66
2024/04/08 00:32:12;;;;;;;;;;;;;;;9.70;100.00;100725.16;5065582;28;20019;-67
2024/04/08 00:34:38;;;;;;;;;;;;;;;9.65;100.00;100728.28;5062723;28;19920;-66
2024/04/08 00:37:03;;;;;;;;;;;;;;;9.60;100.00;100723.44;5063537;28;20410;-67
2024/04/08 00:39:29;;;;;;;;;;;;;;;9.55;100.00;100725.75;5067547;28;20014;-67
2024/04/08 00:41:54;;;;;;;;;;;;;;;9.53;100.00;100725.03;5062572;28;20007;-65
2024/04/08 00:44:20;;;;;;;;;;;;;;;9.44;100.00;100715.34;5059166;28;19921;-65
2024/04/08 00:46:46;;;;;;;;;;;;;;;9.37;100.00;100719.63;5058472;28;20422;-69
2024/04/08 00:49:12;;;;;;;;;;;;;;;9.28;100.00;100721.41;5062388;28;19920;-65
2024/04/08 00:51:37;;;;;;;;;;;;;;;9.19;100.00;100724.13;5069343;28;19932;-66
2024/04/08 00:54:02;;;;;;;;;;;;;;;9.07;100.00;100726.22;5061027;28;20027;-66
2024/04/08 00:56:28;;;;;;;;;;;;;;;9.00;100.00;100723.34;5060259;28;20020;-66
2024/04/08 00:58:53;;;;;;;;;;;;;;;8.91;100.00;100716.28;5054391;28;19921;-66
2024/04/08 01:01:19;;;;;;;;;;;;;;;8.90;100.00;100722.56;5061344;28;19950;-66
2024/04/08 01:03:45;;;;;;;;;;;;;;;8.83;100.00;100732.16;5067464;28;19942;-67
2024/04/08 01:06:12;;;;;;;;;;;;;;;8.74;100.00;100740.19;5063448;28;19932;-66
2024/04/08 01:08:38;;;;;;;;;;;;;;;8.69;100.00;100727.38;5064320;28;19925;-65
2024/04/08 01:11:03;;;;;;;;;;;;;;;8.62;100.00;100723.63;5062085;28;19932;-65
2024/04/08 01:13:29;;;;;;;;;;;;;;;8.52;100.00;100730.84;5061134;28;19921;-67
2024/04/08 01:15:54;;;;;;;;;;;;;;;8.43;100.00;100726.44;5053443;28;20352;-66
2024/04/08 01:18:19;;;;;;;;;;;;;;;8.31;100.00;100734.56;5054709;28;19920;-66
2024/04/08 01:20:45;;;;;;;;;;;;;;;8.24;100.00;100738.78;5055387;28;19925;-66
2024/04/08 01:23:12;;;;;;;;;;;;;;;8.17;100.00;100737.72;5055960;28;19935;-65
2024/04/08 01:25:38;;;;;;;;;;;;;;;8.13;100.00;100741.66;5054024;28;19986;-66
2024/04/08 01:28:04;;;;;;;;;;;;;;;8.13;100.00;100736.34;5053766;28;19924;-67
2024/04/08 01:30:30;;;;;;;;;;;;;;;8.14;100.00;100743.31;5069320;28;20415;-66
2024/04/08 01:32:55;;;;;;;;;;;;;;;8.11;100.00;100738.31;5053009;28;19924;-66
2024/04/08 01:35:20;;;;;;;;;;;;;;;8.04;100.00;100729.25;5052641;28;19921;-68
2024/04/08 01:37:46;;;;;;;;;;;;;;;8.00;100.00;100735.84;5052051;28;19943;-67
2024/04/08 01:40:11;;;;;;;;;;;;;;;8.03;100.00;100735.53;5052258;28;19925;-66
2024/04/08 01:42:36;;;;;;;;;;;;;;;8.05;100.00;100736.22;5052886;28;19933;-67
2024/04/08 01:45:02;;;;;;;;;;;;;;;8.07;100.00;100734.25;5052509;28;19925;-66
2024/04/08 01:47:28;;;;;;;;;;;;;;;8.09;100.00;100740.25;5052677;28;19920;-65
2024/04/08 01:49:54;;;;;;;;;;;;;;;8.09;100.00;100740.25;5052740;28;20410;-66
2024/04/08 01:52:19;;;;;;;;;;;;;;;8.07;100.00;100736.91;5053430;28;20015;-66
2024/04/08 01:54:44;;;;;;;;;;;;;;;8.05;100.00;100734.41;5052277;28;20003;-65
2024/04/08 01:57:10;;;;;;;;;;;;;;;8.02;100.00;100747.13;5052628;28;19927;-65
2024/04/08 01:59:35;;;;;;;;;;;;;;;8.03;100.00;100743.50;5052628;28;19946;-67
2024/04/08 02:02:00;;;;;;;;;;;;;;;8.01;100.00;100742.81;5051965;28;19979;-65
2024/04/08 02:04:26;;;;;;;;;;;;;;;8.05;100.00;100749.50;5052560;28;20019;-65
2024/04/08 02:06:51;;;;;;;;;;;;;;;8.05;100.00;100760.09;5052503;28;19927;-67
2024/04/08 02:09:16;;;;;;;;;;;;;;;8.07;100.00;100758.13;5053253;28;19921;-66
2024/04/08 02:11:42;;;;;;;;;;;;;;;8.02;100.00;100755.91;5052664;28;20348;-65
2024/04/08 02:14:07;;;;;;;;;;;;;;;7.94;100.00;100747.03;5051073;28;20363;-68
2024/04/08 02:16:32;;;;;;;;;;;;;;;7.89;100.00;100755.44;5051233;28;20419;-65
2024/04/08 02:18:58;;;;;;;;;;;;;;;7.83;100.00;100752.53;5052634;28;20419;-65
2024/04/08 02:21:23;;;;;;;;;;;;;;;7.76;100.00;100749.59;5052281;28;19928;-65
2024/04/08 02:23:48;;;;;;;;;;;;;;;7.69;100.00;100748.50;5050954;28;19956;-66
2024/04/08 02:26:15;;;;;;;;;;;;;;;7.61;100.00;100754.53;5051697;28;20027;-67
2024/04/08 02:28:40;;;;;;;;;;;;;;;7.59;100.00;100763.63;5050945;28;20014;-66
2024/04/08 02:31:05;;;;;;;;;;;;;;;7.56;100.00;100762.09;5050779;28;20051;-67
2024/04/08 02:33:30;;;;;;;;;;;;;;;7.53;100.00;100770.34;5054891;28;20860;-66
2024/04/08 02:36:05;;;;;;;;;;;;;;;7.54;100.00;100771.16;5039313;28;20434;-64
2024/04/08 02:38:31;;;;;;;;;;;;;;;7.51;100.00;100777.56;5057194;28;20016;-64
2024/04/08 02:40:57;;;;;;;;;;;;;;;7.56;100.00;100764.75;5054234;28;19927;-65
2024/04/08 02:43:23;;;;;;;;;;;;;;;7.59;100.00;100769.75;5052574;28;20448;-66
2024/04/08 02:45:48;;;;;;;;;;;;;;;7.57;100.00;100771.72;5052166;28;19927;-65
2024/04/08 02:48:15;;;;;;;;;;;;;;;7.55;100.00;100784.28;5067284;28;19921;-65
2024/04/08 02:50:41;;;;;;;;;;;;;;;7.55;100.00;100771.03;5050795;28;19920;-65
2024/04/08 02:53:06;;;;;;;;;;;;;;;7.55;100.00;100784.28;5067856;28;19920;-67
2024/04/08 02:55:33;;;;;;;;;;;;;;;7.53;100.00;100780.94;5053101;28;20342;-67
2024/04/08 02:57:58;;;;;;;;;;;;;;;7.51;100.00;100782.03;5052934;28;19924;-65
2024/04/08 03:00:23;;;;;;;;;;;;;;;7.52;100.00;100795.16;5052082;28;19925;-65
2024/04/08 03:02:49;;;;;;;;;;;;;;;7.50;100.00;100790.94;5050158;28;20386;-68
2024/04/08 03:05:14;;;;;;;;;;;;;;;7.46;100.00;100777.16;5051545;28;19921;-67
2024/04/08 03:07:40;;;;;;;;;;;;;;;7.47;100.00;100797.38;5051344;28;19921;-65
2024/04/08 03:10:05;;;;;;;;;;;;;;;7.44;100.00;100784.41;5051640;28;19928;-67
2024/04/08 03:12:30;;;;;;;;;;;;;;;7.45;100.00;100778.13;5051388;28;20304;-67
2024/04/08 03:14:56;;;;;;;;;;;;;;;7.46;100.00;100780.63;5051335;28;19920;-66
2024/04/08 03:17:22;;;;;;;;;;;;;;;7.47;100.00;100779.66;5051377;28;20276;-67
2024/04/08 03:19:50;;;;;;;;;;;;;;;7.48;100.00;100772.53;5052696;28;19921;-67
2024/04/08 03:22:16;;;;;;;;;;;;;;;7.45;100.00;100767.53;5053303;28;19921;-68
2024/04/08 03:24:41;;;;;;;;;;;;;;;7.43;100.00;100772.97;5054708;28;19921;-65
2024/04/08 03:27:07;;;;;;;;;;;;;;;7.49;100.00;100784.81;5054724;28;19972;-65
2024/04/08 03:29:32;;;;;;;;;;;;;;;7.53;100.00;100783.59;5055418;28;19986;-67
2024/04/08 03:31:58;;;;;;;;;;;;;;;7.54;100.00;100785.25;5053699;28;19921;-67
2024/04/08 03:34:23;;;;;;;;;;;;;;;7.57;100.00;100773.53;5055451;28;19921;-66
2024/04/08 03:36:48;;;;;;;;;;;;;;;7.56;100.00;100769.22;5055265;28;19995;-67
2024/04/08 03:39:14;;;;;;;;;;;;;;;7.57;100.00;100787.63;5054906;28;19925;-66
2024/04/08 03:41:39;;;;;;;;;;;;;;;7.59;100.00;100801.56;5055606;28;19984;-68
2024/04/08 03:44:05;;;;;;;;;;;;;;;7.62;100.00;100797.78;5055864;28;19940;-67
2024/04/08 03:46:30;;;;;;;;;;;;;;;7.65;100.00;100800.97;5055906;28;19927;-67
2024/04/08 03:48:57;;;;;;;;;;;;;;;7.64;100.00;100809.91;5055514;28;19920;-66
2024/04/08 03:51:23;;;;;;;;;;;;;;;7.64;100.00;100796.66;5054293;28;20038;-66
2024/04/08 03:53:48;;;;;;;;;;;;;;;7.66;100.00;100797.34;5053090;28;20358;-66
2024/04/08 03:56:13;;;;;;;;;;;;;;;7.67;100.00;100806.97;5054210;28;19920;-68
2024/04/08 03:58:39;;;;;;;;;;;;;;;7.67;100.00;100800.84;5054209;28;19921;-65
2024/04/08 04:01:05;;;;;;;;;;;;;;;7.65;100.00;100798.34;5054508;28;20347;-65
2024/04/08 04:03:30;;;;;;;;;;;;;;;7.64;100.00;100809.91;5054488;28;19920;-66
2024/04/08 04:05:55;;;;;;;;;;;;;;;7.67;100.00;100799.03;5053999;28;20348;-67
2024/04/08 04:08:21;;;;;;;;;;;;;;;7.67;100.00;100809.63;5052853;28;19968;-69
2024/04/08 04:10:46;;;;;;;;;;;;;;;7.68;100.00;100811.28;5054064;28;19928;-65
2024/04/08 04:13:11;;;;;;;;;;;;;;;7.71;100.00;100804.88;5054151;28;19925;-64
2024/04/08 04:15:37;;;;;;;;;;;;;;;7.68;100.00;100808.66;5054024;28;20307;-67
2024/04/08 04:18:02;;;;;;;;;;;;;;;7.69;100.00;100805.00;5054322;28;20415;-69
2024/04/08 04:20:37;;;;;;;;;;;;;;;7.72;100.00;100815.34;5052971;28;19927;-65
2024/04/08 04:23:02;;;;;;;;;;;;;;;7.73;100.00;100829.41;5054088;28;19963;-69
2024/04/08 04:25:28;;;;;;;;;;;;;;;7.77;100.00;100836.94;5053771;28;19932;-66
2024/04/08 04:27:53;;;;;;;;;;;;;;;7.80;100.00;100842.94;5071490;28;19992;-67
2024/04/08 04:30:18;;;;;;;;;;;;;;;7.82;100.00;100838.34;5072860;28;20391;-68
2024/04/08 04:32:44;;;;;;;;;;;;;;;7.85;100.00;100840.72;5072926;28;19943;-69
2024/04/08 04:35:09;;;;;;;;;;;;;;;7.89;100.00;100839.44;5073536;28;19927;-74
2024/04/08 04:37:34;;;;;;;;;;;;;;;7.95;100.00;100833.56;5073510;28;20372;-75
2024/04/08 04:40:00;;;;;;;;;;;;;;;7.97;100.00;100826.31;5071965;28;20014;-71
2024/04/08 04:42:25;;;;;;;;;;;;;;;8.00;100.00;100820.69;5071961;28;19924;-71
2024/04/08 04:44:50;;;;;;;;;;;;;;;8.04;100.00;100832.69;5072007;28;19924;-68
2024/04/08 04:47:16;;;;;;;;;;;;;;;8.07;100.00;100835.88;5072835;28;19927;-67
2024/04/08 04:49:41;;;;;;;;;;;;;;;8.07;100.00;100835.06;5089925;28;19965;-67
2024/04/08 04:52:06;;;;;;;;;;;;;;;8.07;100.00;100835.88;5088787;28;19967;-67
2024/04/08 04:54:32;;;;;;;;;;;;;;;8.09;100.00;100846.34;5073537;28;20023;-68
2024/04/08 04:56:57;;;;;;;;;;;;;;;8.15;100.00;100853.75;5075241;28;20384;-68
2024/04/08 04:59:22;;;;;;;;;;;;;;;8.23;100.00;100863.63;5073223;28;19925;-72
2024/04/08 05:01:48;;;;;;;;;;;;;;;8.27;100.00;100871.16;5073433;28;20073;-70
2024/04/08 05:04:13;;;;;;;;;;;;;;;8.30;100.00;100870.88;5072983;28;19920;-68
2024/04/08 05:06:39;;;;;;;;;;;;;;;8.34;100.00;100871.44;5071652;28;19927;-67
2024/04/08 05:09:05;;;;;;;;;;;;;;;8.31;100.00;100859.25;5072819;28;20384;-68
2024/04/08 05:11:31;;;;;;;;;;;;;;;8.28;100.00;100856.06;5071617;28;20380;-69
2024/04/08 05:13:56;;;;;;;;;;;;;;;8.25;100.00;100872.28;5071324;28;19967;-68
2024/04/08 05:16:21;;;;;;;;;;;;;;;8.27;100.00;100881.78;5072447;28;20009;-68
2024/04/08 05:18:47;;;;;;;;;;;;;;;8.29;100.00;100882.47;5072903;28;19979;-67
2024/04/08 05:21:12;;;;;;;;;;;;;;;8.32;100.00;100868.91;5073051;28;19931;-69
2024/04/08 05:23:38;;;;;;;;;;;;;;;8.33;100.00;100875.91;5072645;28;19931;-70
2024/04/08 05:26:05;;;;;;;;;;;;;;;8.33;100.00;100870.59;5054212;28;19924;-71
2024/04/08 05:28:30;;;;;;;;;;;;;;;8.31;100.00;100885.81;5054379;28;20029;-70
2024/04/08 05:30:56;;;;;;;;;;;;;;;8.28;100.00;100894.06;5079551;28;19964;-72
2024/04/08 05:33:21;;;;;;;;;;;;;;;8.31;100.00;100899.06;5078980;28;20283;-69
2024/04/08 05:35:47;;;;;;;;;;;;;;;8.40;100.00;100902.72;5075070;28;19921;-70
2024/04/08 05:38:13;;;;;;;;;;;;;;;8.44;100.00;100897.97;5077165;28;20000;-68
2024/04/08 05:40:38;;;;;;;;;;;;;;;8.51;100.00;100901.69;5069525;28;20038;-69
2024/04/08 05:43:04;;;;;;;;;;;;;;;8.61;100.00;100905.13;5073671;28;19927;-69
2024/04/08 05:45:30;;;;;;;;;;;;;;;8.63;100.00;100911.13;5072254;28;20031;-69
2024/04/08 05:47:55;;;;;;;;;;;;;;;8.67;100.00;100904.53;5070885;28;19920;-69
2024/04/08 05:50:21;;;;;;;;;;;;;;;8.72;100.00;100917.41;5072099;28;19921;-68
2024/04/08 05:52:46;;;;;;;;;;;;;;;8.78;100.00;100922.97;5073977;28;19921;-70
2024/04/08 05:55:11;;;;;;;;;;;;;;;8.85;100.00;100925.84;5071185;28;19920;-70
2024/04/08 05:57:37;;;;;;;;;;;;;;;8.92;100.00;100932.25;5071946;28;19997;-69
2024/04/08 06:00:02;;;;;;;;;;;;;;;9.04;100.00;100927.59;5071625;28;19928;-69
2024/04/08 06:02:30;;;;;;;;;;;;;;;9.13;100.00;100924.03;5075374;28;19920;-69
2024/04/08 06:04:56;;;;;;;;;;;;;;;9.22;100.00;100923.97;5076746;28;19921;-70
2024/04/08 06:07:21;;;;;;;;;;;;;;;9.31;100.00;100919.59;5073028;28;19966;-68
2024/04/08 06:09:47;;;;;;;;;;;;;;;9.32;100.00;100931.88;5076060;28;19921;-69
2024/04/08 06:12:12;;;;;;;;;;;;;;;9.34;99.74;100935.22;5073637;28;19925;-66
2024/04/08 06:14:38;;;;;;;;;;;;;;;9.32;98.92;100937.19;5078581;28;19975;-67
2024/04/08 06:17:04;;;;;;;;;;;;;;;9.38;99.30;100930.44;5086488;28;19942;-74
2024/04/08 06:19:30;;;;;;;;;;;;;;;9.41;98.31;100946.09;5087803;28;19933;-73
2024/04/08 06:21:56;;;;;;;;;;;;;;;9.45;98.50;100942.97;5071063;28;19962;-69
2024/04/08 06:24:21;;;;;;;;;;;;;;;9.51;98.40;100938.88;5072468;28;19924;-69
2024/04/08 06:26:47;;;;;;;;;;;;;;;9.60;97.80;100930.84;5070257;28;19924;-67
2024/04/08 06:29:13;;;;;;;;;;;;;;;9.62;97.37;100928.88;5053339;28;19935;-70
2024/04/08 06:31:38;;;;;;;;;;;;;;;9.67;97.33;100932.88;5071707;28;20014;-71
2024/04/08 06:34:03;;;;;;;;;;;;;;;9.63;98.00;100929.69;5071293;28;19920;-71
2024/04/08 06:36:31;;;;;;;;;;;;;;;9.59;97.87;100934.50;5070569;28;19921;-71
2024/04/08 06:38:56;;;;;;;;;;;;;;;9.60;97.41;100922.88;5072622;28;19924;-69
2024/04/08 06:41:22;;;;;;;;;;;;;;;9.68;97.19;100927.41;5071116;28;19950;-69
2024/04/08 06:43:47;;;;;;;;;;;;;;;9.85;97.13;100929.25;5070906;28;19969;-69
2024/04/08 06:46:13;;;;;;;;;;;;;;;9.91;95.89;100919.81;5077899;28;20017;-68
2024/04/08 06:48:38;;;;;;;;;;;;;;;9.96;96.04;100916.66;5077388;28;20437;-68
2024/04/08 06:51:04;;;;;;;;;;;;;;;9.96;95.12;100929.97;5071980;28;19927;-70
2024/04/08 06:53:29;;;;;;;;;;;;;;;9.91;95.27;100941.09;5070738;28;19920;-69
2024/04/08 06:55:54;;;;;;;;;;;;;;;9.94;96.51;100938.94;5076621;28;20011;-70
2024/04/08 06:58:20;;;;;;;;;;;;;;;10.05;96.49;100935.19;5075522;28;19968;-71
2024/04/08 07:00:49;;;;;;;;;;;;;;;10.24;95.49;100940.38;5075188;28;19974;-70
2024/04/08 07:03:14;;;;;;;;;;;;;;;10.46;94.43;100941.69;5075888;28;19920;-70
2024/04/08 07:05:40;;;;;;;;;;;;;;;10.62;92.88;100930.25;5075530;28;20289;-68
2024/04/08 07:08:05;;;;;;;;;;;;;;;10.63;92.12;100950.56;5069821;28;20007;-70
2024/04/08 07:10:31;;;;;;;;;;;;;;;10.57;91.34;100942.38;5054570;28;19921;-70
2024/04/08 07:12:56;;;;;;;;;;;;;;;10.51;91.73;100941.19;5054079;28;20361;-68
2024/04/08 07:15:22;;;;;;;;;;;;;;;10.47;92.77;100945.16;5055206;28;19921;-69
2024/04/08 07:17:47;;;;;;;;;;;;;;;10.48;92.90;100944.19;5054805;28;19924;-73
2024/04/08 07:20:13;;;;;;;;;;;;;;;10.52;93.02;100948.19;5054054;28;19925;-69
2024/04/08 07:22:38;;;;;;;;;;;;;;;10.62;93.49;100964.06;5055095;28;19960;-70
2024/04/08 07:25:04;;;;;;;;;;;;;;;10.70;92.32;100970.28;5055018;28;19927;-69
2024/04/08 07:27:32;;;;;;;;;;;;;;;10.72;91.81;100968.28;5055222;28;19933;-68
2024/04/08 07:30:01;;;;;;;;;;;;;;;10.68;91.21;100980.22;5053613;28;19939;-67
2024/04/08 07:32:29;;;;;;;;;;;;;;;10.68;91.14;100982.88;5054970;28;19931;-67
2024/04/08 07:34:55;;;;;;;;;;;;;;;10.67;91.52;100988.38;5054711;28;19921;-69
2024/04/08 07:37:20;;;;;;;;;;;;;;;10.62;91.88;100990.69;5054745;28;19975;-67
2024/04/08 07:39:45;;;;;;;;;;;;;;;10.65;92.34;101001.03;5054512;28;19935;-71
2024/04/08 07:42:11;;;;;;;;;;;;;;;10.61;91.97;101016.47;5054833;28;19921;-69
2024/04/08 07:44:36;;;;;;;;;;;;;;;10.57;91.25;101030.28;5053149;28;20392;-66
2024/04/08 07:47:01;;;;;;;;;;;;;;;10.52;92.29;101025.41;5052991;28;19925;-70
2024/04/08 07:49:27;;;;;;;;;;;;;;;10.37;92.35;101032.28;5054672;28;20572;-68
2024/04/08 07:51:52;;;;;;;;;;;;;;;10.35;92.01;101036.91;5054516;28;19932;-68
2024/04/08 07:54:17;;;;;;;;;;;;;;;10.33;92.20;101042.41;5054558;28;19944;-69
2024/04/08 07:56:43;;;;;;;;;;;;;;;10.43;91.98;101050.31;5053004;28;20434;-70
2024/04/08 07:59:08;;;;;;;;;;;;;;;10.60;90.98;101040.63;5056184;28;19921;-70
2024/04/08 08:01:33;;;;;;;;;;;;;;;10.78;89.93;101044.91;5056402;28;19920;-67
2024/04/08 08:03:59;;;;;;;;;;;;;;;10.91;89.53;101054.28;5052707;28;19920;-69
2024/04/08 08:06:24;;;;;;;;;;;;;;;11.04;87.55;101054.72;5052786;28;19966;-69
2024/04/08 08:08:50;;;;;;;;;;;;;;;11.16;87.06;101056.09;5054507;28;19921;-71
2024/04/08 08:11:15;;;;;;;;;;;;;;;11.26;86.36;101067.47;5054332;28;20001;-70
2024/04/08 08:13:41;;;;;;;;;;;;;;;11.40;85.87;101072.22;5053868;28;19927;-67
2024/04/08 08:16:06;;;;;;;;;;;;;;;11.59;84.56;101072.97;5073231;28;20437;-69
2024/04/08 08:18:34;;;;;;;;;;;;;;;11.55;82.68;101079.59;5072545;28;19920;-67
2024/04/08 08:21:01;;;;;;;;;;;;;;;11.57;81.43;101093.63;5074152;28;20260;-68
2024/04/08 08:23:27;;;;;;;;;;;;;;;11.58;80.91;101082.81;5073923;28;19925;-69
2024/04/08 08:25:53;;;;;;;;;;;;;;;11.46;80.89;101087.56;5072412;28;19924;-68
2024/04/08 08:28:20;;;;;;;;;;;;;;;11.56;81.23;101089.28;5073469;28;20011;-70
2024/04/08 08:30:46;;;;;;;;;;;;;;;11.54;81.55;101093.94;5073666;28;20306;-69
2024/04/08 08:33:11;;;;;;;;;;;;;;;11.47;81.63;101091.06;5073733;28;19943;-70
2024/04/08 08:35:40;;;;;;;;;;;;;;;11.28;81.85;101094.00;5055618;28;20011;-69
2024/04/08 08:38:06;;;;;;;;;;;;;;;11.05;83.08;101093.72;5072923;28;19932;-71
2024/04/08 08:40:32;;;;;;;;;;;;;;;11.07;83.57;101108.53;5073052;28;19920;-70
2024/04/08 08:42:57;;;;;;;;;;;;;;;11.11;83.58;101101.06;5055530;28;20338;-72
2024/04/08 08:45:23;;;;;;;;;;;;;;;11.16;83.99;101091.59;5072952;28;19920;-68
2024/04/08 08:47:49;;;;;;;;;;;;;;;11.15;83.93;101089.94;5073307;28;19925;-70
2024/04/08 08:50:14;;;;;;;;;;;;;;;11.12;84.00;101094.75;5073729;28;19928;-71
2024/04/08 08:52:40;;;;;;;;;;;;;;;11.06;84.47;101090.88;5073535;28;20307;-71
2024/04/08 08:55:05;;;;;;;;;;;;;;;11.07;84.66;101086.38;5079152;28;19920;-71
2024/04/08 08:57:31;;;;;;;;;;;;;;;11.10;84.38;101092.22;5072502;28;19921;-71
2024/04/08 08:59:57;;;;;;;;;;;;;;;11.13;84.72;101083.09;5073325;28;19952;-71
2024/04/08 09:02:24;;;;;;;;;;;;;;;11.08;85.17;101098.72;5055537;28;19924;-70
2024/04/08 09:04:49;;;;;;;;;;;;;;;11.09;85.00;101095.06;5072536;28;19973;-71
2024/04/08 09:07:15;;;;;;;;;;;;;;;11.05;84.88;101088.38;5071169;28;20002;-74
2024/04/08 09:09:40;;;;;;;;;;;;;;;11.11;85.41;101082.41;5072144;28;19920;-72
2024/04/08 09:12:10;;;;;;;;;;;;;;;11.24;85.11;101081.97;5072704;28;19920;-71
2024/04/08 09:14:35;;;;;;;;;;;;;;;11.31;84.51;101096.34;5071108;28;19920;-68
2024/04/08 09:17:04;;;;;;;;;;;;;;;11.37;84.72;101093.88;5073334;28;19920;-67
2024/04/08 09:19:29;;;;;;;;;;;;;;;11.45;84.16;101085.06;5070920;28;19921;-71
2024/04/08 09:21:55;;;;;;;;;;;;;;;11.55;84.29;101090.25;5072413;28;19920;-70
2024/04/08 09:24:20;;;;;;;;;;;;;;;11.56;83.53;101086.59;5071434;28;19927;-67
2024/04/08 09:26:46;;;;;;;;;;;;;;;11.62;83.63;101092.16;5072877;28;20010;-71
2024/04/08 09:29:12;;;;;;;;;;;;;;;11.69;83.70;101097.66;5072034;28;19924;-69
2024/04/08 09:31:37;;;;;;;;;;;;;;;11.72;82.61;101092.00;5070866;28;19925;-74
2024/04/08 09:34:06;;;;;;;;;;;;;;;11.78;83.11;101092.22;5072865;28;19982;-72
2024/04/08 09:36:32;;;;;;;;;;;;;;;11.92;82.93;101090.78;5070766;28;20453;-68
2024/04/08 09:39:00;;;;;;;;;;;;;;;12.03;82.18;101092.28;5071352;28;20035;-70
2024/04/08 09:41:27;;;;;;;;;;;;;;;12.05;81.24;101114.31;5067252;28;19965;-72
2024/04/08 09:43:54;;;;;;;;;;;;;;;12.03;80.16;101111.81;5071676;28;19920;-69
2024/04/08 09:46:19;;;;;;;;;;;;;;;11.91;80.54;101107.78;5070049;28;19924;-70
2024/04/08 09:48:45;;;;;;;;;;;;;;;11.92;80.74;101125.47;5070374;28;19931;-68
2024/04/08 09:51:11;;;;;;;;;;;;;;;11.97;80.57;101116.97;5071201;28;19969;-71
2024/04/08 09:53:36;;;;;;;;;;;;;;;11.98;80.01;101107.97;5070923;28;20375;-71
2024/04/08 09:56:11;;;;;;;;;;;;;;;11.98;80.81;101110.63;5069253;28;20061;-71
2024/04/08 09:58:39;;;;;;;;;;;;;;;11.92;80.32;101116.63;5071048;28;19920;-71
2024/04/08 10:01:04;;;;;;;;;;;;;;;11.93;80.90;101111.13;5071359;28;19920;-70
2024/04/08 10:03:40;;;;;;;;;;;;;;;11.93;80.58;101111.13;5064692;28;19927;-70
2024/04/08 10:06:06;;;;;;;;;;;;;;;11.90;80.57;101106.13;5070319;28;20485;-68
2024/04/08 10:08:32;;;;;;;;;;;;;;;11.72;80.93;101100.84;5071387;28;19966;-69
2024/04/08 10:10:57;;;;;;;;;;;;;;;11.73;81.16;101104.34;5069353;28;19924;-70
2024/04/08 10:13:23;;;;;;;;;;;;;;;11.81;81.78;101106.22;5069869;28;19931;-70
2024/04/08 10:15:48;;;;;;;;;;;;;;;11.79;81.11;101109.06;5071646;28;19966;-71
2024/04/08 10:18:13;;;;;;;;;;;;;;;11.65;81.52;101097.16;5071916;28;20011;-70
2024/04/08 10:20:43;;;;;;;;;;;;;;;11.71;82.15;101115.19;5072769;28;20015;-71
2024/04/08 10:23:09;;;;;;;;;;;;;;;11.62;82.00;101112.66;5069486;28;19920;-73
2024/04/08 10:25:40;;;;;;;;;;;;;;;11.61;82.11;101105.66;5081463;28;20280;-68
2024/04/08 10:28:10;;;;;;;;;;;;;;;11.65;81.80;101107.00;5076792;28;19929;-70
2024/04/08 10:30:37;;;;;;;;;;;;;;;11.55;82.44;101107.09;5075898;28;19925;-71
2024/04/08 10:33:03;;;;;;;;;;;;;;;11.63;82.47;101104.50;5075322;28;19963;-69
2024/04/08 10:35:28;;;;;;;;;;;;;;;11.69;82.26;101103.00;5076283;28;20402;-71
2024/04/08 10:37:54;;;;;;;;;;;;;;;11.79;81.94;101103.72;5075233;28;19943;-70
2024/04/08 10:40:20;;;;;;;;;;;;;;;11.85;82.14;101102.25;5078147;28;19924;-71
2024/04/08 10:42:45;;;;;;;;;;;;;;;11.89;81.46;101101.78;5082429;28;19921;-70
2024/04/08 10:45:11;;;;;;;;;;;;;;;11.82;81.68;101098.06;5074338;28;19921;-70
2024/04/08 10:47:36;;;;;;;;;;;;;;;11.74;81.99;101101.50;5074888;28;19927;-70
2024/04/08 10:50:01;;;;;;;;;;;;;;;11.57;82.26;101109.63;5075806;28;19932;-71
2024/04/08 10:52:31;;;;;;;;;;;;;;;11.51;83.24;101110.25;5074337;28;20015;-69
2024/04/08 10:54:57;;;;;;;;;;;;;;;11.52;83.71;101110.09;5075577;28;19920;-70
2024/04/08 10:57:26;;;;;;;;;;;;;;;11.57;83.02;101130.97;5080297;28;19924;-70
2024/04/08 10:59:51;;;;;;;;;;;;;;;11.64;83.39;101114.16;5077693;28;19927;-72
2024/04/08 11:02:17;;;;;;;;;;;;;;;11.74;82.48;101108.69;5074594;28;19920;-70
2024/04/08 11:04:43;;;;;;;;;;;;;;;11.77;82.39;101111.03;5074776;28;19958;-69
2024/04/08 11:07:09;;;;;;;;;;;;;;;11.61;82.48;101119.00;5076541;28;19920;-70
2024/04/08 11:09:35;;;;;;;;;;;;;;;11.64;82.90;101110.66;5073331;28;19920;-70
2024/04/08 11:12:03;;;;;;;;;;;;;;;11.80;82.70;101110.72;5076373;28;19927;-68
2024/04/08 11:14:29;;;;;;;;;;;;;;;11.86;82.16;101110.09;5074960;28;19925;-71
2024/04/08 11:16:58;;;;;;;;;;;;;;;11.91;81.86;101117.63;5073217;28;20396;-69
2024/04/08 11:19:24;;;;;;;;;;;;;;;11.90;81.73;101111.44;5074925;28;19920;-69
2024/04/08 11:21:49;;;;;;;;;;;;;;;11.87;81.66;101111.78;5075329;28;19927;-67
2024/04/08 11:24:14;;;;;;;;;;;;;;;11.71;81.55;101106.34;5075137;28;20023;-68
2024/04/08 11:26:41;;;;;;;;;;;;;;;11.62;81.91;101105.50;5081078;28;20387;-67
2024/04/08 11:29:07;;;;;;;;;;;;;;;11.56;82.46;101102.59;5084971;28;19947;-68
2024/04/08 11:32:51;;;;;;;;;;;;;;;11.61;82.89;101097.66;5590633;25;20299;-71
2024/04/08 11:35:16;;;;;;;;;;;;;;;11.65;82.37;101107.84;5551066;25;19994;-69
2024/04/08 11:37:42;;;;;;;;;;;;;;;11.75;82.52;101102.34;5582721;25;19934;-74
2024/04/08 11:40:08;;;;;;;;;;;;;;;11.84;81.10;101105.91;5543390;25;19934;-70
2024/04/08 11:42:34;;;;;;;;;;;;;;;11.94;81.04;101107.44;5561113;25;19940;-69
2024/04/08 11:45:06;;;;;;;;;;;;;;;11.91;79.66;101107.78;5569683;25;19995;-70
2024/04/08 11:47:31;;;;;;;;;;;;;;;12.02;80.33;101104.78;5565383;25;19995;-70
2024/04/08 11:49:57;;;;;;;;;;;;;;;12.14;78.88;101101.81;5570524;25;19939;-70
2024/04/08 11:52:22;;;;;;;;;;;;;;;12.22;77.65;101109.84;5567024;25;19935;-70
2024/04/08 11:54:47;;;;;;;;;;;;;;;12.30;77.84;101108.00;5569226;25;19937;-67
2024/04/08 11:57:13;;;;;;;;;;;;;;;12.39;77.16;101111.53;5565055;25;19939;-70
2024/04/08 11:59:39;;;;;;;;;;;;;;;12.42;76.92;101111.19;5566609;25;19927;-70
2024/04/08 12:02:04;;;;;;;;;;;;;;;12.48;76.15;101115.06;5539038;25;19927;-72
2024/04/08 12:04:30;;;;;;;;;;;;;;;12.48;76.33;101115.88;5548242;25;19934;-70
2024/04/08 12:06:55;;;;;;;;;;;;;;;12.47;75.54;101108.88;5550027;25;19927;-72
2024/04/08 12:09:21;;;;;;;;;;;;;;;12.55;75.31;101116.88;5551376;25;19975;-70
2024/04/08 12:11:46;;;;;;;;;;;;;;;12.64;74.63;101105.19;5549261;25;19927;-71
2024/04/08 12:14:12;;;;;;;;;;;;;;;12.68;74.70;101106.50;5548590;25;19947;-73
2024/04/08 12:16:37;;;;;;;;;;;;;;;12.75;73.56;101121.91;5548302;25;20270;-70
2024/04/08 12:19:03;;;;;;;;;;;;;;;12.78;73.94;101117.06;5583910;25;20374;-71
2024/04/08 12:21:29;;;;;;;;;;;;;;;12.87;73.73;101126.72;5549722;25;19933;-72
2024/04/08 12:23:54;;;;;;;;;;;;;;;12.89;73.29;101127.38;5579578;25;19928;-71
2024/04/08 12:26:20;;;;;;;;;;;;;;;12.95;73.16;101125.88;5514522;25;19928;-71
2024/04/08 12:28:45;;;;;;;;;;;;;;;13.00;72.96;101126.19;5543948;25;19934;-73
2024/04/08 12:31:11;;;;;;;;;;;;;;;12.89;72.21;101134.56;5553084;25;19934;-75